Time;durP1;ratioP1;P1;durP2;ratioP2;P2;SDS_P1;SDS_P2;PMS_P1;PMS_P2;Temp;Humidity;BMP_temperature;BMP_pressure;BME280_temperature;BME280_humidity;BME280_pressure;Samples;Min_cycle;Max_cycle;Signal;HPM_P1;HPM_P2
2021/01/16 00:00:59;;;;;;;35.35;16.65;;;;;;;-5.83;80.90;96759.11;1788878;80;21164;-86
2021/01/16 00:03:27;;;;;;;38.10;16.48;;;;;;;-5.87;80.96;96766.89;1786912;80;21510;-85
2021/01/16 00:05:59;;;;;;;32.28;14.85;;;;;;;-5.89;80.88;96767.55;1769934;80;21119;-85
2021/01/16 00:08:28;;;;;;;24.77;12.37;;;;;;;-5.87;80.87;96775.92;1769338;80;21118;-86
2021/01/16 00:10:58;;;;;;;32.53;16.30;;;;;;;-5.89;80.66;96772.72;1794442;79;21159;-85
2021/01/16 00:13:33;;;;;;;28.25;15.28;;;;;;;-5.94;80.49;96786.63;1790540;80;21162;-84
2021/01/16 00:16:03;;;;;;;35.85;16.37;;;;;;;-5.99;80.42;96787.95;1788135;80;21108;-85
2021/01/16 00:18:31;;;;;;;30.52;15.38;;;;;;;-6.02;80.44;96791.37;1786314;80;21135;-85
2021/01/16 00:21:00;;;;;;;27.20;14.03;;;;;;;-6.04;80.33;96792.83;1786574;80;21112;-85
2021/01/16 00:23:30;;;;;;;29.25;14.28;;;;;;;-6.06;80.19;96788.78;1781768;80;21126;-85
2021/01/16 00:25:59;;;;;;;26.80;13.18;;;;;;;-6.11;80.02;96798.34;1768146;80;21254;-85
2021/01/16 00:28:32;;;;;;;19.92;9.93;;;;;;;-6.14;79.90;96792.23;1783259;79;21161;-85
2021/01/16 00:31:02;;;;;;;26.77;12.93;;;;;;;-6.18;79.36;96802.58;1795178;80;21118;-86
2021/01/16 00:33:34;;;;;;;25.47;11.13;;;;;;;-6.24;79.29;96801.94;1789870;80;21118;-85
2021/01/16 00:36:04;;;;;;;;;;;;;;;-6.28;79.13;96798.09;1790003;80;21256;-85
2021/01/16 00:38:40;;;;;;;20.37;11.43;;;;;;;-6.31;78.87;96800.53;1792133;79;20206;-86
2021/01/16 00:41:08;;;;;;;17.07;9.37;;;;;;;-6.32;78.92;96806.67;1794813;78;21151;-86
2021/01/16 00:43:40;;;;;;;19.40;9.70;;;;;;;-6.42;78.32;96804.77;1804955;78;21126;-86
2021/01/16 00:46:06;;;;;;;20.23;8.80;;;;;;;-6.47;78.18;96803.67;1798719;78;21471;-84
2021/01/16 00:48:33;;;;;;;17.07;8.50;;;;;;;-6.46;78.06;96806.08;1801159;79;21143;-85
2021/01/16 00:51:00;;;;;;;17.75;8.95;;;;;;;-6.47;77.51;96804.95;1807249;78;21151;-86
2021/01/16 00:53:28;;;;;;;16.17;9.77;;;;;;;-6.54;77.16;96814.31;1809953;78;21079;-85
2021/01/16 00:55:55;;;;;;;20.67;9.37;;;;;;;-6.57;77.22;96812.08;1779131;79;21139;-86
2021/01/16 00:58:22;;;;;;;14.80;7.90;;;;;;;-6.57;77.22;96814.66;1786578;80;21139;-86
2021/01/16 01:00:51;;;;;;;14.93;7.60;;;;;;;-6.56;77.20;96814.48;1780395;80;21186;-86
2021/01/16 01:03:21;;;;;;;8.40;4.05;;;;;;;-6.54;77.15;96816.89;1756286;80;21115;-86
2021/01/16 01:05:49;;;;;;;13.88;6.90;;;;;;;-6.56;76.56;96812.39;1788743;80;21107;-85
2021/01/16 01:08:17;;;;;;;17.40;7.85;;;;;;;-6.55;76.89;96820.44;1763664;80;21087;-86
2021/01/16 01:10:46;;;;;;;13.70;6.37;;;;;;;-6.51;76.87;96818.64;1763182;80;21123;-86
2021/01/16 01:13:15;;;;;;;16.75;6.97;;;;;;;-6.47;76.82;96811.41;1791133;80;21123;-85
2021/01/16 01:15:42;;;;;;;14.37;7.07;;;;;;;-6.46;76.20;96811.72;1769272;80;21290;-85
2021/01/16 01:18:10;;;;;;;12.80;6.53;;;;;;;-6.49;76.30;96808.16;1801388;79;21468;-86
2021/01/16 01:20:37;;;;;;;13.35;7.05;;;;;;;-6.50;76.10;96816.38;1769509;80;21535;-85
2021/01/16 01:23:04;;;;;;;15.28;6.37;;;;;;;-6.55;75.79;96813.51;1768503;80;21142;-85
2021/01/16 01:25:32;;;;;;;12.10;5.10;;;;;;;-6.59;75.57;96813.05;1801453;79;21155;-85
2021/01/16 01:28:01;;;;;;;9.80;4.63;;;;;;;-6.67;74.75;96810.48;1769374;80;21072;-85
2021/01/16 01:30:31;;;;;;;10.18;4.62;;;;;;;-6.78;74.83;96809.53;1801690;79;21138;-85
2021/01/16 01:32:59;;;;;;;11.12;4.85;;;;;;;-6.83;74.84;96806.66;1769509;80;21475;-85
2021/01/16 01:35:27;;;;;;;14.07;5.20;;;;;;;-6.86;74.82;96813.43;1801431;80;21131;-86
2021/01/16 01:37:57;;;;;;;11.93;3.97;;;;;;;-6.85;75.06;96816.81;1769022;80;21510;-86
2021/01/16 01:40:28;;;;;;;12.82;6.28;;;;;;;-6.88;74.61;96820.53;1801621;80;21118;-86
2021/01/16 01:42:57;;;;;;;10.53;5.47;;;;;;;-6.89;75.10;96815.05;1769696;80;21080;-86
2021/01/16 01:45:26;;;;;;;20.20;6.83;;;;;;;-6.85;75.06;96819.39;1764003;80;21501;-86
2021/01/16 01:47:54;;;;;;;12.57;5.77;;;;;;;-6.87;75.14;96814.41;1799154;80;21114;-86
2021/01/16 01:50:21;;;;;;;12.10;5.87;;;;;;;-6.81;75.15;96819.38;1769396;80;21122;-86
2021/01/16 01:52:51;;;;;;;12.97;5.30;;;;;;;-6.80;74.78;96818.41;1801428;79;21479;-86
2021/01/16 01:55:20;;;;;;;10.95;5.75;;;;;;;-6.78;74.90;96817.75;1762546;81;21119;-86
2021/01/16 01:57:54;;;;;;;11.47;5.23;;;;;;;-6.74;75.02;96821.14;1801476;80;21499;-86
2021/01/16 02:00:23;;;;;;;15.47;5.70;;;;;;;-6.68;75.06;96820.95;1801055;79;21468;-86
2021/01/16 02:02:53;;;;;;;11.73;5.37;;;;;;;-6.63;74.99;96819.97;1762009;81;21120;-86
2021/01/16 02:05:20;;;;;;;11.33;4.65;;;;;;;-6.59;75.16;96820.78;1788215;80;21670;-86
2021/01/16 02:07:47;;;;;;;11.57;5.53;;;;;;;-6.53;75.05;96816.72;1779448;80;21079;-86
2021/01/16 02:10:23;;;;;;;6.80;3.43;;;;;;;-6.52;74.82;96817.04;1767493;80;21123;-86
2021/01/16 02:12:54;;;;;;;11.55;6.33;;;;;;;-6.49;74.68;96817.19;1772296;80;21491;-86
2021/01/16 02:15:42;;;;;;;10.17;5.57;;;;;;;-6.64;73.94;96811.91;1759449;79;21076;-86
2021/01/16 02:18:30;;;;;;;11.97;6.50;;;;;;;-6.68;74.36;96810.64;1786494;80;21076;-86
2021/01/16 02:21:01;;;;;;;13.20;6.37;;;;;;;-6.71;74.51;96813.08;1792340;80;21107;-86
2021/01/16 02:23:33;;;;;;;13.63;6.03;;;;;;;-6.73;74.71;96807.28;1789212;80;21088;-86
2021/01/16 02:26:17;;;;;;;13.93;7.20;;;;;;;-6.81;74.23;96806.48;1792401;80;21479;-86
2021/01/16 02:28:56;;;;;;;8.73;4.20;;;;;;;-6.84;74.54;96803.76;1792415;80;21142;-86
2021/01/16 02:31:40;;;;;;;13.13;5.87;;;;;;;-6.89;74.60;96798.30;1770314;79;21139;-86
2021/01/16 02:34:15;;;;;;;12.47;6.27;;;;;;;-6.96;74.47;96802.48;1792301;80;21107;-86
2021/01/16 02:36:56;;;;;;;9.80;4.50;;;;;;;-7.00;74.81;96808.46;1792522;80;21136;-86
2021/01/16 02:39:37;;;;;;;15.43;5.77;;;;;;;-7.04;74.53;96811.50;1791968;80;21315;-86
2021/01/16 02:42:15;;;;;;;11.90;5.33;;;;;;;-7.02;74.98;96810.88;1792064;80;21499;-85
2021/01/16 02:44:59;;;;;;;10.20;4.40;;;;;;;-6.96;75.15;96812.80;1792326;80;21257;-86
2021/01/16 02:47:40;;;;;;;11.73;5.13;;;;;;;-6.89;75.16;96812.48;1792254;79;21130;-86
2021/01/16 02:50:10;;;;;;;13.77;5.70;;;;;;;-6.84;75.14;96807.63;1770237;80;21499;-86
2021/01/16 02:52:49;;;;;;;9.20;4.77;;;;;;;-6.80;75.18;96798.59;1762504;80;21103;-85
2021/01/16 02:55:18;;;;;;;11.20;4.93;;;;;;;-6.73;75.34;96806.48;1770871;80;21507;-86
2021/01/16 02:57:46;;;;;;;8.93;4.37;;;;;;;-6.68;75.38;96808.88;1792638;80;21309;-85
2021/01/16 03:00:20;;;;;;;9.27;4.50;;;;;;;-6.63;75.33;96804.01;1792201;80;21257;-85
2021/01/16 03:02:48;;;;;;;13.03;4.57;;;;;;;-6.64;75.26;96803.70;1790900;80;21257;-85
2021/01/16 03:05:17;;;;;;;11.50;4.80;;;;;;;-6.63;75.30;96806.59;1792291;80;21277;-85
2021/01/16 03:07:49;;;;;;;6.73;3.47;;;;;;;-6.61;75.15;96801.30;1791991;80;21609;-86
2021/01/16 03:10:17;;;;;;;9.97;5.07;;;;;;;-6.59;74.97;96793.70;1770511;79;21119;-85
2021/01/16 03:12:44;;;;;;;14.73;7.10;;;;;;;-6.81;74.65;96795.69;1781520;80;21494;-85
2021/01/16 03:15:18;;;;;;;15.13;7.00;;;;;;;-6.98;74.79;96799.28;1792649;79;21110;-86
2021/01/16 03:17:55;;;;;;;10.23;5.07;;;;;;;-7.05;75.01;96806.03;1791635;80;21116;-85
2021/01/16 03:20:28;;;;;;;11.13;4.97;;;;;;;-7.13;75.16;96797.84;1791978;80;21304;-85
2021/01/16 03:22:59;;;;;;;11.37;4.03;;;;;;;-7.26;75.09;96806.55;1792360;80;21250;-86
2021/01/16 03:25:30;;;;;;;7.93;4.27;;;;;;;-7.30;74.92;96803.50;1791870;80;21483;-85
2021/01/16 03:27:59;;;;;;;11.57;4.57;;;;;;;-7.33;74.81;96796.08;1792272;80;21626;-85
2021/01/16 03:30:27;;;;;;;13.33;5.83;;;;;;;-7.37;74.50;96797.38;1792286;80;21250;-86
2021/01/16 03:32:55;;;;;;;10.13;5.27;;;;;;;-7.38;74.75;96800.11;1792310;79;21100;-85
2021/01/16 03:35:25;;;;;;;13.17;5.73;;;;;;;-7.41;74.76;96796.09;1792377;80;21614;-85
2021/01/16 03:37:54;;;;;;;12.80;4.80;;;;;;;-7.42;74.84;96802.21;1792633;80;21088;-85
2021/01/16 03:40:21;;;;;;;12.55;5.67;;;;;;;-7.39;74.90;96795.45;1792505;80;21276;-85
2021/01/16 03:42:49;;;;;;;11.47;5.80;;;;;;;-7.39;74.88;96796.73;1788364;80;21506;-85
2021/01/16 03:45:21;;;;;;;8.17;3.93;;;;;;;-7.36;74.99;96795.12;1792280;80;21148;-85
2021/01/16 03:47:49;;;;;;;10.50;4.97;;;;;;;-7.35;74.79;96791.57;1791943;79;21594;-85
2021/01/16 03:50:16;;;;;;;11.37;5.43;;;;;;;-7.38;74.79;96795.77;1792364;80;21307;-85
2021/01/16 03:52:43;;;;;;;8.73;4.20;;;;;;;-7.44;74.93;96795.14;1791752;79;21274;-85
2021/01/16 03:55:11;;;;;;;10.10;5.10;;;;;;;-7.48;75.07;96793.83;1792319;80;21579;-85
2021/01/16 03:57:39;;;;;;;13.00;5.33;;;;;;;-7.50;75.34;96790.13;1792341;80;21107;-85
2021/01/16 04:00:10;;;;;;;11.90;5.20;;;;;;;-7.57;75.73;96786.60;1792288;80;21246;-85
2021/01/16 04:02:37;;;;;;;9.47;5.53;;;;;;;-7.62;75.97;96787.55;1792249;80;21629;-85
2021/01/16 04:05:06;;;;;;;11.43;6.07;;;;;;;-7.66;76.26;96777.73;1792287;80;21684;-85
2021/01/16 04:07:34;;;;;;;13.53;6.47;;;;;;;-7.68;76.44;96783.53;1792675;80;21114;-85
2021/01/16 04:10:01;;;;;;;14.00;6.00;;;;;;;-7.69;76.68;96789.64;1773844;80;21103;-86
2021/01/16 04:12:28;;;;;;;11.37;5.90;;;;;;;-7.71;76.98;96779.52;1789548;80;21119;-86
2021/01/16 04:14:57;;;;;;;13.93;5.97;;;;;;;-7.73;77.18;96775.50;1792533;80;21119;-85
2021/01/16 04:17:24;;;;;;;8.20;4.60;;;;;;;-7.75;77.47;96782.55;1792444;79;21119;-85
2021/01/16 04:19:51;;;;;;;11.80;4.90;;;;;;;-7.79;77.88;96782.06;1792262;80;21266;-85
2021/01/16 04:22:18;;;;;;;8.97;4.63;;;;;;;-7.80;78.40;96784.32;1792356;80;21118;-85
2021/01/16 04:24:45;;;;;;;16.03;5.77;;;;;;;-7.84;78.76;96777.41;1791268;79;21130;-85
2021/01/16 04:27:12;;;;;;;8.90;4.20;;;;;;;-7.86;79.01;96783.20;1792393;80;21112;-85
2021/01/16 04:29:39;;;;;;;9.10;4.23;;;;;;;-7.88;79.39;96780.44;1792429;80;21483;-85
2021/01/16 04:32:06;;;;;;;15.30;6.93;;;;;;;-7.89;79.62;96782.69;1792381;80;21480;-85
2021/01/16 04:34:33;;;;;;;8.67;4.60;;;;;;;-7.90;79.69;96784.94;1792486;79;21111;-85
2021/01/16 04:37:01;;;;;;;11.27;5.80;;;;;;;-7.92;79.89;96781.24;1792566;80;21491;-85
2021/01/16 04:39:27;;;;;;;13.80;7.07;;;;;;;-7.93;79.95;96783.50;1792441;79;21135;-85
2021/01/16 04:41:58;;;;;;;10.00;5.47;;;;;;;-7.91;79.98;96784.14;1792510;79;21122;-85
2021/01/16 04:44:27;;;;;;;12.97;5.70;;;;;;;-7.88;80.11;96779.98;1792465;79;21147;-85
2021/01/16 04:46:57;;;;;;;11.30;6.27;;;;;;;-7.89;80.14;96773.20;1792256;80;21127;-85
2021/01/16 04:49:24;;;;;;;10.93;4.67;;;;;;;-7.89;80.21;96778.34;1792089;80;22035;-85
2021/01/16 04:51:54;;;;;;;12.27;6.53;;;;;;;-7.89;80.40;96770.63;1792664;79;21451;-85
2021/01/16 04:54:24;;;;;;;12.37;5.80;;;;;;;-7.88;80.50;96768.86;1792395;80;21115;-85
2021/01/16 04:56:51;;;;;;;10.23;5.40;;;;;;;-7.91;80.51;96766.12;1792545;80;21107;-85
2021/01/16 04:59:19;;;;;;;14.67;6.07;;;;;;;-7.90;80.67;96763.07;1792384;80;21127;-85
2021/01/16 05:01:47;;;;;;;10.80;4.70;;;;;;;-7.88;80.66;96756.83;1792333;80;21257;-85
2021/01/16 05:04:16;;;;;;;12.93;5.77;;;;;;;-7.84;80.59;96754.25;1793071;79;21104;-85
2021/01/16 05:06:47;;;;;;;8.30;4.03;;;;;;;-7.79;80.50;96747.33;1793125;80;21127;-85
2021/01/16 05:09:16;;;;;;;12.07;6.43;;;;;;;-7.78;80.61;96745.08;1775724;80;21119;-85
2021/01/16 05:11:54;;;;;;;12.10;5.97;;;;;;;-7.77;80.56;96750.55;1747500;81;21149;-85
2021/01/16 05:14:28;;;;;;;7.33;3.50;;;;;;;-7.75;80.60;96746.52;1782849;80;21112;-86
2021/01/16 05:17:00;;;;;;;6.70;3.57;;;;;;;-7.72;80.79;96748.80;1780406;80;21520;-86
2021/01/16 05:19:32;;;;;;;7.47;4.27;;;;;;;-7.71;80.85;96749.11;1769533;80;21132;-86
2021/01/16 05:22:01;;;;;;;13.93;4.37;;;;;;;-7.70;80.86;96749.44;1772713;80;21131;-86
2021/01/16 05:24:29;;;;;;;6.13;4.03;;;;;;;-7.70;80.93;96750.72;1792665;80;21115;-86
2021/01/16 05:27:06;;;;;;;10.07;6.30;;;;;;;-7.72;81.10;96759.09;1788051;80;21460;-85
2021/01/16 05:29:36;;;;;;;6.43;3.03;;;;;;;-7.72;81.04;96759.09;1792606;80;21112;-85
2021/01/16 05:32:06;;;;;;;10.48;4.50;;;;;;;-7.73;81.16;96750.56;1792546;80;21115;-85
2021/01/16 05:34:34;;;;;;;10.10;6.50;;;;;;;-7.72;81.11;96762.47;1792844;80;21107;-85
2021/01/16 05:37:03;;;;;;;9.63;3.70;;;;;;;-7.71;81.04;96758.92;1786578;80;21479;-85
2021/01/16 05:39:32;;;;;;;8.30;3.63;;;;;;;-7.68;80.90;96758.59;1792585;80;21173;-85
2021/01/16 05:42:04;;;;;;;8.90;5.20;;;;;;;-7.62;80.67;96763.58;1791397;80;21080;-85
2021/01/16 05:44:34;;;;;;;13.43;5.73;;;;;;;-7.62;80.58;96761.80;1792640;80;21143;-86
2021/01/16 05:47:01;;;;;;;6.45;3.95;;;;;;;-7.60;80.55;96764.22;1792447;80;21123;-85
2021/01/16 05:49:28;;;;;;;7.73;3.60;;;;;;;-7.58;80.61;96755.88;1783656;80;21164;-85
2021/01/16 05:51:56;;;;;;;7.90;3.20;;;;;;;-7.54;80.73;96760.53;1792649;80;21127;-86
2021/01/16 05:54:24;;;;;;;8.27;4.33;;;;;;;-7.49;80.78;96766.47;1792696;80;21142;-85
2021/01/16 05:56:51;;;;;;;8.00;4.70;;;;;;;-7.46;80.74;96757.13;1792663;80;21497;-85
2021/01/16 05:59:21;;;;;;;7.47;4.50;;;;;;;-7.41;80.67;96766.48;1792253;80;21135;-85
2021/01/16 06:01:51;;;;;;;7.90;2.63;;;;;;;-7.37;80.59;96766.47;1784512;80;21114;-85
2021/01/16 06:04:21;;;;;;;5.47;3.13;;;;;;;-7.29;80.57;96764.39;1795900;80;21310;-85
2021/01/16 06:06:49;;;;;;;5.75;2.75;;;;;;;-7.27;80.73;96756.81;1796100;80;21115;-85
2021/01/16 06:09:20;;;;;;;6.57;2.70;;;;;;;-7.23;80.92;96765.02;1786929;80;21130;-85
2021/01/16 06:11:50;;;;;;;6.03;2.57;;;;;;;-7.22;80.95;96756.31;1780918;80;21120;-85
2021/01/16 06:14:18;;;;;;;;;;;;;;;-7.18;81.09;96756.30;1798466;80;21118;-85
2021/01/16 06:16:54;;;;;;;8.97;3.30;;;;;;;-7.16;81.29;96752.30;1795521;80;20150;-85
2021/01/16 06:19:27;;;;;;;4.30;2.97;;;;;;;-7.16;81.37;96756.97;1796111;80;21096;-85
2021/01/16 06:21:55;;;;;;;5.90;3.23;;;;;;;-7.17;81.49;96761.80;1768216;80;21119;-85
2021/01/16 06:24:25;;;;;;;11.07;5.33;;;;;;;-7.21;81.63;96750.19;1782244;80;21123;-85
2021/01/16 06:26:59;;;;;;;9.00;4.57;;;;;;;-7.24;81.63;96759.54;1769441;80;21079;-85
2021/01/16 06:29:32;;;;;;;10.87;5.00;;;;;;;-7.22;81.68;96760.98;1772208;80;21130;-85
2021/01/16 06:32:07;;;;;;;9.90;4.80;;;;;;;-7.19;81.58;96772.23;1768306;80;21139;-85
2021/01/16 06:34:40;;;;;;;11.63;6.20;;;;;;;-7.12;81.55;96771.13;1801266;80;21119;-85
2021/01/16 06:37:13;;;;;;;12.27;5.00;;;;;;;-7.03;81.47;96777.08;1801199;79;21104;-85
2021/01/16 06:39:48;;;;;;;12.03;6.33;;;;;;;-6.93;81.39;96778.96;1767153;80;21114;-85
2021/01/16 06:42:26;;;;;;;9.37;4.13;;;;;;;-6.86;81.28;96779.93;1801994;80;21088;-85
2021/01/16 06:45:09;;;;;;;7.33;3.90;;;;;;;-6.78;81.28;96771.35;1770382;80;21112;-85
2021/01/16 06:47:39;;;;;;;9.83;5.40;;;;;;;-6.77;81.36;96778.11;1801875;79;21115;-86
2021/01/16 06:50:08;;;;;;;9.88;4.65;;;;;;;-6.76;81.36;96763.77;1748994;80;21491;-85
2021/01/16 06:52:40;;;;;;;11.23;5.00;;;;;;;-6.73;81.52;96753.64;1800689;80;21661;-85
2021/01/16 06:55:08;;;;;;;13.13;7.40;;;;;;;-6.73;81.69;96766.53;1771437;79;21118;-85
2021/01/16 06:57:36;;;;;;;7.30;4.20;;;;;;;-6.73;81.83;96776.84;1770501;80;21293;-85
2021/01/16 07:00:09;;;;;;;10.57;6.53;;;;;;;-6.71;81.97;96765.88;1784631;79;21184;-85
2021/01/16 07:02:39;;;;;;;10.47;6.83;;;;;;;-6.71;82.06;96770.54;1784475;80;21155;-85
2021/01/16 07:05:18;;;;;;;9.43;5.03;;;;;;;-6.72;82.12;96754.75;1794264;80;21173;-85
2021/01/16 07:07:51;;;;;;;12.47;4.93;;;;;;;-6.73;82.24;96766.53;1795160;80;21131;-86
2021/01/16 07:10:22;;;;;;;10.23;4.97;;;;;;;-6.73;82.27;96761.37;1794990;80;21253;-85
2021/01/16 07:12:52;;;;;;;10.13;4.90;;;;;;;-6.74;82.23;96760.57;1794123;80;21068;-86
2021/01/16 07:15:23;;;;;;;8.08;4.85;;;;;;;-6.72;82.17;96766.36;1794868;80;21115;-85
2021/01/16 07:17:54;;;;;;;10.93;6.37;;;;;;;-6.72;82.20;96762.48;1794584;80;21314;-85
2021/01/16 07:20:24;;;;;;;10.80;5.85;;;;;;;-6.71;82.14;96757.65;1759874;80;21511;-86
2021/01/16 07:22:53;;;;;;;12.82;7.25;;;;;;;-6.69;82.07;96763.92;1793671;80;21107;-85
2021/01/16 07:25:21;;;;;;;11.45;6.65;;;;;;;-6.68;82.08;96754.73;1795325;80;21142;-86
2021/01/16 07:27:49;;;;;;;8.83;5.47;;;;;;;-6.65;82.05;96763.91;1816925;78;22407;-85
2021/01/16 07:30:18;;;;;;;13.33;6.43;;;;;;;-6.63;81.96;96761.95;1785525;78;21498;-85
2021/01/16 07:32:49;;;;;;;17.43;8.33;;;;;;;-6.62;81.94;96765.66;1799556;78;21510;-85
2021/01/16 07:35:26;;;;;;;14.13;8.07;;;;;;;-6.60;81.93;96761.16;1795078;80;21606;-85
2021/01/16 07:37:54;;;;;;;17.67;7.07;;;;;;;-6.55;81.86;96759.84;1801289;78;21115;-86
2021/01/16 07:40:29;;;;;;;14.03;7.50;;;;;;;-6.49;81.84;96753.52;1795134;80;21136;-86
2021/01/16 07:43:00;;;;;;;12.13;7.50;;;;;;;-6.46;81.76;96748.05;1799816;78;21238;-86
2021/01/16 07:45:33;;;;;;;12.43;6.40;;;;;;;-6.42;81.70;96745.94;1770586;79;21230;-86
2021/01/16 07:48:05;;;;;;;14.27;7.70;;;;;;;-6.42;81.74;96738.20;1797480;79;21147;-86
2021/01/16 07:50:35;;;;;;;7.80;4.67;;;;;;;-6.36;81.72;96745.25;1791748;80;21143;-86
2021/01/16 07:53:10;;;;;;;12.37;6.08;;;;;;;-6.32;81.79;96743.95;1792451;80;21511;-86
2021/01/16 07:55:45;;;;;;;16.87;7.93;;;;;;;-6.30;81.84;96740.23;1792036;79;21151;-86
2021/01/16 07:58:36;;;;;;;9.77;4.80;;;;;;;-6.29;81.88;96741.84;1792353;80;21444;-85
2021/01/16 08:01:37;;;;;;;16.87;10.77;;;;;;;-6.26;82.11;96741.17;1792472;80;21277;-86
2021/01/16 08:04:29;;;;;;;12.83;8.20;;;;;;;-6.25;82.39;96738.42;1771259;80;21491;-87
2021/01/16 08:07:06;;;;;;;21.20;10.07;;;;;;;-6.24;82.90;96739.23;1790736;80;21443;-86
2021/01/16 08:09:51;;;;;;;29.53;14.90;;;;;;;-6.23;83.28;96742.12;1782332;79;21092;-86
2021/01/16 08:12:23;;;;;;;13.03;6.80;;;;;;;-6.23;83.31;96741.63;1773389;79;21151;-86
2021/01/16 08:14:50;;;;;;;13.07;8.03;;;;;;;-6.20;83.23;96734.03;1787272;79;21115;-86
2021/01/16 08:17:36;;;;;;;9.47;6.30;;;;;;;-6.17;83.23;96737.59;1778310;79;21119;-86
2021/01/16 08:20:17;;;;;;;12.47;7.07;;;;;;;-6.13;83.22;96715.14;1767778;79;21200;-86
2021/01/16 08:22:51;;;;;;;12.93;7.63;;;;;;;-6.11;83.15;96733.83;1788130;79;21161;-86
2021/01/16 08:25:28;;;;;;;11.93;6.17;;;;;;;-6.08;83.06;96738.64;1776852;79;21483;-86
2021/01/16 08:27:59;;;;;;;17.63;8.30;;;;;;;-6.01;83.02;96729.25;1784447;79;21159;-86
2021/01/16 08:30:30;;;;;;;13.73;7.67;;;;;;;-5.95;82.77;96734.70;1784765;79;21272;-85
2021/01/16 08:33:07;;;;;;;12.10;7.13;;;;;;;-5.93;82.75;96726.29;1782132;79;21162;-84
2021/01/16 08:35:48;;;;;;;16.60;8.13;;;;;;;-5.91;82.61;96735.95;1782118;79;21189;-86
2021/01/16 08:38:23;;;;;;;14.87;7.53;;;;;;;-5.87;82.56;96737.20;1779252;79;21156;-86
2021/01/16 08:41:06;;;;;;;17.73;8.33;;;;;;;-5.87;82.61;96726.88;1779626;80;21468;-85
2021/01/16 08:43:44;;;;;;;11.30;7.17;;;;;;;-5.84;82.68;96712.33;1785433;79;21508;-85
2021/01/16 08:46:21;;;;;;;17.57;6.40;;;;;;;-5.80;82.67;96722.13;1790663;79;21134;-86
2021/01/16 08:49:05;;;;;;;15.30;6.93;;;;;;;-5.75;82.75;96736.63;1788408;79;21511;-86
2021/01/16 08:51:53;;;;;;;16.53;9.70;;;;;;;-5.72;82.57;96723.86;1774794;79;21086;-86
2021/01/16 08:54:24;;;;;;;18.17;11.83;;;;;;;-5.69;82.31;96714.47;1790098;79;21123;-86
2021/01/16 08:56:56;;;;;;;13.08;7.55;;;;;;;-5.63;82.25;96725.41;1778851;79;21141;-85
2021/01/16 08:59:34;;;;;;;11.80;6.33;;;;;;;-5.58;81.84;96741.67;1771579;79;21155;-86
2021/01/16 09:02:10;;;;;;;18.30;9.95;;;;;;;-5.58;81.67;96749.42;1788213;79;21122;-85
2021/01/16 09:04:41;;;;;;;16.23;10.43;;;;;;;-5.56;81.45;96743.09;1782174;79;21514;-87
2021/01/16 09:07:24;;;;;;;13.90;8.85;;;;;;;-5.55;81.28;96740.83;1786317;79;21136;-86
2021/01/16 09:10:06;;;;;;;12.90;7.27;;;;;;;-5.57;81.24;96745.85;1792101;79;21197;-86
2021/01/16 09:12:38;;;;;;;17.57;7.90;;;;;;;-5.59;81.18;96751.20;1786800;79;21462;-86
2021/01/16 09:15:35;;;;;;;13.25;7.10;;;;;;;-5.58;81.17;96748.13;1769679;79;21149;-86
2021/01/16 09:18:10;;;;;;;14.13;8.10;;;;;;;-5.60;81.19;96746.20;1788757;80;21278;-87
2021/01/16 09:20:47;;;;;;;16.43;10.47;;;;;;;-5.64;81.21;96741.85;1785181;79;21439;-87
2021/01/16 09:23:38;;;;;;;10.93;6.35;;;;;;;-5.66;81.48;96745.10;1783091;79;21171;-87
2021/01/16 09:26:12;;;;;;;16.27;7.78;;;;;;;-5.62;81.57;96745.58;1780801;79;21131;-88
2021/01/16 09:29:00;;;;;;;15.45;9.20;;;;;;;-5.57;81.40;96720.03;1773464;80;21158;-88
2021/01/16 09:31:42;;;;;;;18.57;7.58;;;;;;;-5.57;81.13;96729.07;1755916;80;21124;-88
2021/01/16 09:34:17;;;;;;;13.85;8.83;;;;;;;-5.56;80.86;96743.09;1786273;79;21166;-89
2021/01/16 09:36:59;;;;;;;21.93;9.53;;;;;;;-5.50;80.89;96743.68;1789783;79;21513;-90
2021/01/16 09:39:31;;;;;;;15.05;9.35;;;;;;;-5.41;80.76;96745.72;1786874;79;21131;-87
2021/01/16 09:42:05;;;;;;;16.57;9.13;;;;;;;-5.30;80.88;96750.96;1785932;79;21172;-87
2021/01/16 09:44:52;;;;;;;14.98;8.45;;;;;;;-5.27;80.55;96738.98;1786288;80;21172;-88
2021/01/16 09:47:31;;;;;;;14.77;7.23;;;;;;;-5.25;80.47;96733.94;1783523;79;21122;-87
2021/01/16 09:50:11;;;;;;;13.15;7.65;;;;;;;-5.21;80.31;96742.14;1786362;79;21151;-87
2021/01/16 09:52:47;;;;;;;10.15;5.83;;;;;;;-5.13;80.30;96734.31;1765005;80;21160;-87
2021/01/16 09:55:19;;;;;;;12.65;6.58;;;;;;;-5.22;79.93;96735.37;1773258;80;21504;-88
2021/01/16 09:57:46;;;;;;;11.08;6.42;;;;;;;-5.25;80.11;96734.43;1778874;80;21523;-87
2021/01/16 10:00:17;;;;;;;13.32;6.80;;;;;;;-5.26;80.08;96728.95;1784737;80;21122;-88
2021/01/16 10:02:45;;;;;;;;;;;;;;;-5.27;80.15;96727.34;1786333;79;21536;-87
2021/01/16 10:05:18;;;;;;;12.15;7.00;;;;;;;-5.30;80.29;96722.54;1775525;79;20395;-87
2021/01/16 10:07:47;;;;;;;10.57;5.17;;;;;;;-5.30;80.32;96714.79;1772872;79;21502;-87
2021/01/16 10:10:18;;;;;;;13.58;7.40;;;;;;;-5.28;80.50;96717.50;1788679;79;21132;-87
2021/01/16 10:12:49;;;;;;;9.28;5.42;;;;;;;-5.23;80.58;96707.92;1778649;79;21601;-87
2021/01/16 10:15:18;;;;;;;14.68;8.50;;;;;;;-5.12;80.48;96708.30;1783594;80;21419;-87
2021/01/16 10:17:53;;;;;;;13.40;7.12;;;;;;;-5.16;80.25;96708.34;1782333;80;21528;-87
2021/01/16 10:20:20;;;;;;;13.08;7.25;;;;;;;-5.05;80.34;96704.53;1792124;79;21624;-89
2021/01/16 10:22:53;;;;;;;14.28;8.38;;;;;;;-5.09;80.14;96705.34;1790591;79;21140;-87
2021/01/16 10:25:22;;;;;;;16.80;9.25;;;;;;;-5.15;80.28;96702.69;1787228;79;21140;-88
2021/01/16 10:27:54;;;;;;;13.18;6.62;;;;;;;-5.13;80.48;96709.28;1778959;80;21126;-88
2021/01/16 10:30:25;;;;;;;11.85;7.42;;;;;;;-5.09;80.41;96700.67;1788809;79;21143;-87
2021/01/16 10:32:53;;;;;;;11.55;6.35;;;;;;;-5.12;80.22;96701.03;1768623;80;21500;-88
2021/01/16 10:35:31;;;;;;;15.48;9.28;;;;;;;-5.06;80.14;96697.75;1781574;79;21182;-88
2021/01/16 10:38:01;;;;;;;24.35;7.62;;;;;;;-5.09;80.14;96707.94;1782872;79;21084;-88
2021/01/16 10:40:29;;;;;;;11.95;5.97;;;;;;;-5.08;80.13;96704.86;1784577;79;21145;-89
2021/01/16 10:42:59;;;;;;;15.38;9.23;;;;;;;-5.05;80.19;96692.89;1782245;79;21174;-89
2021/01/16 10:45:32;;;;;;;13.55;8.53;;;;;;;-5.08;79.91;96692.73;1784184;79;21146;-88
2021/01/16 10:48:18;;;;;;;19.48;10.18;;;;;;;-5.10;80.02;96701.16;1784116;80;21476;-88
2021/01/16 10:50:46;;;;;;;16.37;7.17;;;;;;;-5.02;80.45;96701.58;1789569;80;21699;-88
2021/01/16 10:53:13;;;;;;;19.70;8.50;;;;;;;-4.94;80.07;96678.20;1790496;79;21136;-88
2021/01/16 10:55:56;;;;;;;11.28;5.10;;;;;;;-5.03;79.88;96687.55;1770818;79;21186;-88
2021/01/16 10:58:28;;;;;;;17.30;8.78;;;;;;;-4.96;80.10;96689.22;1787489;80;21540;-88
2021/01/16 11:01:00;;;;;;;13.60;7.00;;;;;;;-4.93;80.01;96688.86;1789306;79;21107;-89
2021/01/16 11:03:33;;;;;;;10.75;5.97;;;;;;;-4.92;79.79;96681.44;1772260;80;21146;-88
2021/01/16 11:06:10;;;;;;;8.85;5.53;;;;;;;-4.90;79.68;96680.77;1767160;80;21463;-88
2021/01/16 11:08:40;;;;;;;12.58;7.65;;;;;;;-4.98;79.58;96662.75;1795564;78;21123;-88
2021/01/16 11:11:30;;;;;;;13.78;7.47;;;;;;;-5.01;79.90;96670.07;1789681;80;21117;-88
2021/01/16 11:13:57;;;;;;;13.65;7.65;;;;;;;-4.97;79.79;96652.72;1783292;80;21154;-88
2021/01/16 11:16:24;;;;;;;10.82;6.03;;;;;;;-5.01;79.70;96659.23;1775113;79;21122;-87
2021/01/16 11:18:52;;;;;;;15.38;6.37;;;;;;;-4.95;79.58;96661.09;1787815;79;21159;-87
2021/01/16 11:21:39;;;;;;;12.33;5.17;;;;;;;-4.89;79.41;96648.76;1785452;80;21103;-88
2021/01/16 11:24:52;;;;;;;11.97;5.75;;;;;;;-4.91;79.62;96648.63;1777268;79;21124;-85
2021/01/16 11:27:26;;;;;;;9.50;5.65;;;;;;;-4.91;80.24;96643.46;1777248;79;21112;-88
2021/01/16 11:30:10;;;;;;;9.60;6.50;;;;;;;-4.92;80.41;96648.33;1779325;79;21163;-89
2021/01/16 11:32:38;;;;;;;9.35;5.85;;;;;;;-4.91;80.52;96651.22;1756360;79;21212;-86
2021/01/16 11:35:13;;;;;;;17.20;9.55;;;;;;;-4.90;80.07;96650.23;1783332;79;21209;-87
2021/01/16 11:37:54;;;;;;;15.43;8.13;;;;;;;-4.90;80.27;96644.58;1779492;79;21142;-85
2021/01/16 11:40:36;;;;;;;11.63;6.60;;;;;;;-4.85;80.13;96646.11;1774781;79;21490;-85
2021/01/16 11:43:10;;;;;;;22.82;9.43;;;;;;;-4.85;79.85;96639.66;1771643;79;21132;-87
2021/01/16 11:45:39;;;;;;;18.82;8.98;;;;;;;-4.82;79.72;96624.27;1779376;79;21503;-86
2021/01/16 11:48:08;;;;;;;23.40;9.50;;;;;;;-4.82;78.97;96627.65;1766607;79;21187;-86
2021/01/16 11:50:38;;;;;;;30.15;15.55;;;;;;;-4.79;78.72;96625.98;1769929;79;21456;-86